sensor_id;sensor_type;location;lat;lon;timestamp;pressure;altitude;pressure_sealevel;temperature;humidity
72857;BME280;62742;52.136;4.500;2023-04-22T00:01:20;100918.47;;;8.02;90.78
72857;BME280;62742;52.136;4.500;2023-04-22T00:03:49;100925.50;;;7.90;90.81
72857;BME280;62742;52.136;4.500;2023-04-22T00:06:16;100927.28;;;7.83;90.79
72857;BME280;62742;52.136;4.500;2023-04-22T00:08:43;100917.69;;;7.77;91.17
72857;BME280;62742;52.136;4.500;2023-04-22T00:11:09;100921.19;;;7.75;90.96
72857;BME280;62742;52.136;4.500;2023-04-22T00:13:35;100917.72;;;7.73;90.74
72857;BME280;62742;52.136;4.500;2023-04-22T00:16:05;100916.84;;;7.64;90.46
72857;BME280;62742;52.136;4.500;2023-04-22T00:18:34;100910.75;;;7.56;89.86
72857;BME280;62742;52.136;4.500;2023-04-22T00:21:01;100917.78;;;7.46;90.83
72857;BME280;62742;52.136;4.500;2023-04-22T00:23:28;100929.09;;;7.44;91.07
72857;BME280;62742;52.136;4.500;2023-04-22T00:25:54;100926.47;;;7.38;91.14
72857;BME280;62742;52.136;4.500;2023-04-22T00:28:20;100922.13;;;7.35;91.60
72857;BME280;62742;52.136;4.500;2023-04-22T00:30:47;100920.34;;;7.48;91.47
72857;BME280;62742;52.136;4.500;2023-04-22T00:33:13;100918.63;;;7.44;91.57
72857;BME280;62742;52.136;4.500;2023-04-22T00:35:39;100923.00;;;7.42;91.37
72857;BME280;62742;52.136;4.500;2023-04-22T00:38:05;100920.34;;;7.49;91.03
72857;BME280;62742;52.136;4.500;2023-04-22T00:40:32;100924.75;;;7.41;91.30
72857;BME280;62742;52.136;4.500;2023-04-22T00:42:58;100921.19;;;7.79;88.34
72857;BME280;62742;52.136;4.500;2023-04-22T00:45:25;100926.28;;;8.15;86.48
72857;BME280;62742;52.136;4.500;2023-04-22T00:47:51;100927.22;;;8.03;85.73
72857;BME280;62742;52.136;4.500;2023-04-22T00:50:18;100924.72;;;7.55;87.88
72857;BME280;62742;52.136;4.500;2023-04-22T00:52:44;100930.84;;;7.19;90.04
72857;BME280;62742;52.136;4.500;2023-04-22T00:55:10;100934.34;;;7.04;91.50
72857;BME280;62742;52.136;4.500;2023-04-22T00:57:37;100932.56;;;6.95;92.86
72857;BME280;62742;52.136;4.500;2023-04-22T01:00:07;100926.47;;;6.91;92.64
72857;BME280;62742;52.136;4.500;2023-04-22T01:02:36;100928.22;;;6.86;92.69
72857;BME280;62742;52.136;4.500;2023-04-22T01:05:03;100927.34;;;6.84;92.92
72857;BME280;62742;52.136;4.500;2023-04-22T01:07:30;100931.72;;;6.98;92.44
72857;BME280;62742;52.136;4.500;2023-04-22T01:09:56;100923.88;;;6.87;93.07
72857;BME280;62742;52.136;4.500;2023-04-22T01:12:24;100929.97;;;6.78;93.27
72857;BME280;62742;52.136;4.500;2023-04-22T01:14:50;100933.44;;;6.79;93.46
72857;BME280;62742;52.136;4.500;2023-04-22T01:17:16;100937.81;;;7.20;90.34
72857;BME280;62742;52.136;4.500;2023-04-22T01:19:44;100935.22;;;7.09;88.85
72857;BME280;62742;52.136;4.500;2023-04-22T01:22:11;100936.06;;;7.20;88.94
72857;BME280;62742;52.136;4.500;2023-04-22T01:24:38;100934.34;;;6.98;87.80
72857;BME280;62742;52.136;4.500;2023-04-22T01:27:05;100936.00;;;6.52;91.29
72857;BME280;62742;52.136;4.500;2023-04-22T01:29:32;100928.16;;;6.43;93.19
72857;BME280;62742;52.136;4.500;2023-04-22T01:31:58;100929.88;;;6.41;92.68
72857;BME280;62742;52.136;4.500;2023-04-22T01:34:25;100925.53;;;6.40;92.94
72857;BME280;62742;52.136;4.500;2023-04-22T01:36:51;100923.78;;;6.38;93.54
72857;BME280;62742;52.136;4.500;2023-04-22T01:39:17;100925.53;;;6.40;92.04
72857;BME280;62742;52.136;4.500;2023-04-22T01:41:44;100926.41;;;6.38;93.15
72857;BME280;62742;52.136;4.500;2023-04-22T01:44:11;100922.03;;;6.30;92.87
72857;BME280;62742;52.136;4.500;2023-04-22T01:46:37;100919.38;;;6.23;93.30
72857;BME280;62742;52.136;4.500;2023-04-22T01:49:04;100912.41;;;6.22;93.68
72857;BME280;62742;52.136;4.500;2023-04-22T01:51:30;100923.84;;;6.53;91.17
72857;BME280;62742;52.136;4.500;2023-04-22T01:53:57;100923.00;;;6.86;88.92
72857;BME280;62742;52.136;4.500;2023-04-22T01:56:24;100917.78;;;7.09;86.92
72857;BME280;62742;52.136;4.500;2023-04-22T01:58:50;100912.50;;;6.52;89.44
72857;BME280;62742;52.136;4.500;2023-04-22T02:01:17;100917.66;;;6.25;91.91
72857;BME280;62742;52.136;4.500;2023-04-22T02:03:43;100917.63;;;6.15;93.04
72857;BME280;62742;52.136;4.500;2023-04-22T02:06:09;100917.63;;;6.12;93.60
72857;BME280;62742;52.136;4.500;2023-04-22T02:08:35;100920.34;;;6.54;91.91
72857;BME280;62742;52.136;4.500;2023-04-22T02:11:02;100916.81;;;6.38;91.03
72857;BME280;62742;52.136;4.500;2023-04-22T02:13:36;100913.28;;;6.17;91.31
72857;BME280;62742;52.136;4.500;2023-04-22T02:16:03;100911.53;;;6.10;91.81
72857;BME280;62742;52.136;4.500;2023-04-22T02:18:30;100914.16;;;6.13;91.15
72857;BME280;62742;52.136;4.500;2023-04-22T02:20:56;100924.50;;;6.01;92.19
72857;BME280;62742;52.136;4.500;2023-04-22T02:23:23;100917.56;;;5.97;92.86
72857;BME280;62742;52.136;4.500;2023-04-22T02:25:49;100917.47;;;5.91;93.14
72857;BME280;62742;52.136;4.500;2023-04-22T02:28:16;100920.22;;;6.14;92.55
72857;BME280;62742;52.136;4.500;2023-04-22T02:30:44;100923.69;;;6.08;92.30
72857;BME280;62742;52.136;4.500;2023-04-22T02:33:11;100925.38;;;5.98;92.67
72857;BME280;62742;52.136;4.500;2023-04-22T02:35:37;100921.00;;;5.96;92.65
72857;BME280;62742;52.136;4.500;2023-04-22T02:38:03;100923.59;;;5.91;93.33
72857;BME280;62742;52.136;4.500;2023-04-22T02:40:30;100919.19;;;5.86;93.30
72857;BME280;62742;52.136;4.500;2023-04-22T02:42:56;100915.72;;;5.84;93.86
72857;BME280;62742;52.136;4.500;2023-04-22T02:45:22;100905.28;;;5.77;93.46
72857;BME280;62742;52.136;4.500;2023-04-22T02:47:48;100903.50;;;5.75;93.61
72857;BME280;62742;52.136;4.500;2023-04-22T02:50:14;100908.78;;;5.83;92.39
72857;BME280;62742;52.136;4.500;2023-04-22T02:52:41;100907.91;;;5.87;92.57
72857;BME280;62742;52.136;4.500;2023-04-22T02:55:07;100900.03;;;5.80;93.18
72857;BME280;62742;52.136;4.500;2023-04-22T02:57:34;100904.38;;;5.72;93.43
72857;BME280;62742;52.136;4.500;2023-04-22T03:00:00;100898.28;;;5.67;93.51
72857;BME280;62742;52.136;4.500;2023-04-22T03:02:26;100898.25;;;5.70;92.81
72857;BME280;62742;52.136;4.500;2023-04-22T03:04:52;100895.69;;;5.76;92.69
72857;BME280;62742;52.136;4.500;2023-04-22T03:07:19;100889.59;;;5.79;91.73
72857;BME280;62742;52.136;4.500;2023-04-22T03:09:45;100888.72;;;5.69;93.04
72857;BME280;62742;52.136;4.500;2023-04-22T03:12:11;100886.97;;;5.71;92.09
72857;BME280;62742;52.136;4.500;2023-04-22T03:14:38;100889.56;;;5.68;92.66
72857;BME280;62742;52.136;4.500;2023-04-22T03:17:04;100881.75;;;5.71;91.36
72857;BME280;62742;52.136;4.500;2023-04-22T03:19:30;100879.13;;;5.62;91.95
72857;BME280;62742;52.136;4.500;2023-04-22T03:21:56;100873.84;;;5.51;92.59
72857;BME280;62742;52.136;4.500;2023-04-22T03:24:23;100877.34;;;5.52;93.30
72857;BME280;62742;52.136;4.500;2023-04-22T03:26:50;100867.72;;;5.46;93.50
72857;BME280;62742;52.136;4.500;2023-04-22T03:29:16;100870.34;;;5.48;93.60
72857;BME280;62742;52.136;4.500;2023-04-22T03:31:42;100861.66;;;5.46;93.82
72857;BME280;62742;52.136;4.500;2023-04-22T03:34:08;100866.00;;;5.45;93.84
72857;BME280;62742;52.136;4.500;2023-04-22T03:36:34;100866.88;;;5.49;94.48
72857;BME280;62742;52.136;4.500;2023-04-22T03:39:00;100860.81;;;5.51;94.56
72857;BME280;62742;52.136;4.500;2023-04-22T03:41:27;100856.47;;;5.56;94.25
72857;BME280;62742;52.136;4.500;2023-04-22T03:43:53;100853.00;;;5.54;94.65
72857;BME280;62742;52.136;4.500;2023-04-22T03:46:19;100853.00;;;5.53;94.13
72857;BME280;62742;52.136;4.500;2023-04-22T03:48:45;100847.78;;;5.53;93.99
72857;BME280;62742;52.136;4.500;2023-04-22T03:51:11;100849.50;;;5.51;93.94
72857;BME280;62742;52.136;4.500;2023-04-22T03:53:37;100852.97;;;5.50;94.37
72857;BME280;62742;52.136;4.500;2023-04-22T03:56:04;100851.25;;;5.47;94.60
72857;BME280;62742;52.136;4.500;2023-04-22T03:58:30;100850.34;;;5.48;94.76
72857;BME280;62742;52.136;4.500;2023-04-22T04:00:56;100847.75;;;5.50;94.72
72857;BME280;62742;52.136;4.500;2023-04-22T04:03:22;100838.22;;;5.53;94.63
72857;BME280;62742;52.136;4.500;2023-04-22T04:05:48;100839.13;;;5.54;94.65
72857;BME280;62742;52.136;4.500;2023-04-22T04:08:15;100838.25;;;5.56;94.49
72857;BME280;62742;52.136;4.500;2023-04-22T04:10:41;100829.56;;;5.57;94.35
72857;BME280;62742;52.136;4.500;2023-04-22T04:13:07;100827.81;;;5.55;94.23
72857;BME280;62742;52.136;4.500;2023-04-22T04:15:33;100824.34;;;5.54;94.17
72857;BME280;62742;52.136;4.500;2023-04-22T04:18:01;100829.56;;;5.56;94.29
72857;BME280;62742;52.136;4.500;2023-04-22T04:20:28;100839.13;;;5.60;94.28
72857;BME280;62742;52.136;4.500;2023-04-22T04:22:54;100832.22;;;5.62;94.27
72857;BME280;62742;52.136;4.500;2023-04-22T04:25:21;100830.44;;;5.61;94.38
72857;BME280;62742;52.136;4.500;2023-04-22T04:27:47;100826.09;;;5.61;94.11
72857;BME280;62742;52.136;4.500;2023-04-22T04:30:16;100820.03;;;5.64;94.20
72857;BME280;62742;52.136;4.500;2023-04-22T04:32:42;100827.00;;;5.68;94.36
72857;BME280;62742;52.136;4.500;2023-04-22T04:35:12;100820.06;;;5.73;94.33
72857;BME280;62742;52.136;4.500;2023-04-22T04:37:41;100813.13;;;5.75;94.25
72857;BME280;62742;52.136;4.500;2023-04-22T04:40:08;100814.84;;;5.70;94.33
72857;BME280;62742;52.136;4.500;2023-04-22T04:42:35;100815.72;;;5.69;94.62
72857;BME280;62742;52.136;4.500;2023-04-22T04:45:02;100818.34;;;5.75;94.76
72857;BME280;62742;52.136;4.500;2023-04-22T04:47:28;100827.03;;;5.73;94.09
72857;BME280;62742;52.136;4.500;2023-04-22T04:49:59;100825.25;;;5.69;93.96
72857;BME280;62742;52.136;4.500;2023-04-22T04:52:26;100827.91;;;5.76;94.23
72857;BME280;62742;52.136;4.500;2023-04-22T04:54:52;100823.56;;;5.72;94.56
72857;BME280;62742;52.136;4.500;2023-04-22T04:57:18;100814.84;;;5.73;94.71
72857;BME280;62742;52.136;4.500;2023-04-22T04:59:44;100819.25;;;5.77;94.63
72857;BME280;62742;52.136;4.500;2023-04-22T05:02:10;100820.09;;;5.76;94.66
72857;BME280;62742;52.136;4.500;2023-04-22T05:04:36;100813.13;;;5.78;94.49
72857;BME280;62742;52.136;4.500;2023-04-22T05:07:02;100807.09;;;5.83;94.23
72857;BME280;62742;52.136;4.500;2023-04-22T05:09:31;100809.69;;;5.90;94.27
72857;BME280;62742;52.136;4.500;2023-04-22T05:12:02;100803.63;;;5.93;94.23
72857;BME280;62742;52.136;4.500;2023-04-22T05:14:30;100802.75;;;5.91;94.08
72857;BME280;62742;52.136;4.500;2023-04-22T05:16:56;100801.94;;;5.96;94.54
72857;BME280;62742;52.136;4.500;2023-04-22T05:19:23;100797.59;;;6.02;94.42
72857;BME280;62742;52.136;4.500;2023-04-22T05:21:49;100794.09;;;6.01;94.23
72857;BME280;62742;52.136;4.500;2023-04-22T05:24:15;100803.69;;;6.07;94.32
72857;BME280;62742;52.136;4.500;2023-04-22T05:26:41;100818.50;;;6.12;94.49
72857;BME280;62742;52.136;4.500;2023-04-22T05:29:07;100821.97;;;6.14;93.58
72857;BME280;62742;52.136;4.500;2023-04-22T05:31:33;100826.34;;;6.20;94.11
72857;BME280;62742;52.136;4.500;2023-04-22T05:34:00;100831.56;;;6.25;94.13
72857;BME280;62742;52.136;4.500;2023-04-22T05:36:26;100828.97;;;6.32;94.19
72857;BME280;62742;52.136;4.500;2023-04-22T05:38:52;100826.38;;;6.35;94.27
72857;BME280;62742;52.136;4.500;2023-04-22T05:41:18;100821.13;;;6.40;94.36
72857;BME280;62742;52.136;4.500;2023-04-22T05:43:45;100832.44;;;6.47;94.17
72857;BME280;62742;52.136;4.500;2023-04-22T05:46:11;100822.88;;;6.52;93.67
72857;BME280;62742;52.136;4.500;2023-04-22T05:48:37;100821.16;;;6.59;93.66
72857;BME280;62742;52.136;4.500;2023-04-22T05:51:04;100823.78;;;6.65;93.21
72857;BME280;62742;52.136;4.500;2023-04-22T05:53:30;100835.09;;;6.70;93.68
72857;BME280;62742;52.136;4.500;2023-04-22T05:55:56;100834.22;;;6.76;92.49
72857;BME280;62742;52.136;4.500;2023-04-22T05:58:23;100836.84;;;6.83;92.86
72857;BME280;62742;52.136;4.500;2023-04-22T06:00:49;100835.94;;;6.97;93.51
72857;BME280;62742;52.136;4.500;2023-04-22T06:03:15;100828.09;;;6.98;92.70
72857;BME280;62742;52.136;4.500;2023-04-22T06:05:41;100821.97;;;7.13;92.80
72857;BME280;62742;52.136;4.500;2023-04-22T06:08:09;100821.09;;;7.22;93.50
72857;BME280;62742;52.136;4.500;2023-04-22T06:10:35;100809.78;;;7.24;94.00
72857;BME280;62742;52.136;4.500;2023-04-22T06:13:01;100813.22;;;7.33;94.76
72857;BME280;62742;52.136;4.500;2023-04-22T06:15:28;100804.47;;;7.44;95.78
72857;BME280;62742;52.136;4.500;2023-04-22T06:17:54;100807.06;;;7.49;96.77
72857;BME280;62742;52.136;4.500;2023-04-22T06:20:20;100807.06;;;7.54;97.72
72857;BME280;62742;52.136;4.500;2023-04-22T06:22:47;100799.19;;;7.61;97.98
72857;BME280;62742;52.136;4.500;2023-04-22T06:25:13;100799.16;;;7.67;98.22
72857;BME280;62742;52.136;4.500;2023-04-22T06:27:39;100797.41;;;7.71;98.09
72857;BME280;62742;52.136;4.500;2023-04-22T06:30:05;100795.63;;;7.81;99.01
72857;BME280;62742;52.136;4.500;2023-04-22T06:32:32;100795.53;;;7.96;99.11
72857;BME280;62742;52.136;4.500;2023-04-22T06:35:02;100799.69;;;8.27;97.09
72857;BME280;62742;52.136;4.500;2023-04-22T06:37:29;100782.25;;;8.29;96.75
72857;BME280;62742;52.136;4.500;2023-04-22T06:39:55;100783.06;;;8.35;97.26
72857;BME280;62742;52.136;4.500;2023-04-22T06:42:21;100776.78;;;8.63;95.04
72857;BME280;62742;52.136;4.500;2023-04-22T06:44:47;100774.84;;;8.83;94.43
72857;BME280;62742;52.136;4.500;2023-04-22T06:47:14;100779.13;;;8.92;93.65
72857;BME280;62742;52.136;4.500;2023-04-22T06:49:40;100780.94;;;8.85;95.98
72857;BME280;62742;52.136;4.500;2023-04-22T06:52:07;100777.41;;;8.88;96.78
72857;BME280;62742;52.136;4.500;2023-04-22T06:54:34;100781.66;;;8.98;96.91
72857;BME280;62742;52.136;4.500;2023-04-22T06:57:00;100774.34;;;9.29;96.09
72857;BME280;62742;52.136;4.500;2023-04-22T06:59:26;100781.91;;;9.55;92.92
72857;BME280;62742;52.136;4.500;2023-04-22T07:01:52;100788.09;;;9.50;94.13
72857;BME280;62742;52.136;4.500;2023-04-22T07:04:19;100783.66;;;9.57;94.44
72857;BME280;62742;52.136;4.500;2023-04-22T07:06:45;100777.44;;;9.64;95.76
72857;BME280;62742;52.136;4.500;2023-04-22T07:09:11;100781.22;;;10.08;93.50
72857;BME280;62742;52.136;4.500;2023-04-22T07:11:37;100774.63;;;10.38;91.45
72857;BME280;62742;52.136;4.500;2023-04-22T07:14:03;100759.34;;;10.62;91.38
72857;BME280;62742;52.136;4.500;2023-04-22T07:16:30;100769.63;;;10.76;86.22
72857;BME280;62742;52.136;4.500;2023-04-22T07:18:56;100760.84;;;10.77;88.67
72857;BME280;62742;52.136;4.500;2023-04-22T07:21:23;100762.84;;;11.12;87.00
72857;BME280;62742;52.136;4.500;2023-04-22T07:23:50;100769.41;;;11.35;86.47
72857;BME280;62742;52.136;4.500;2023-04-22T07:26:18;100760.69;;;11.73;86.14
72857;BME280;62742;52.136;4.500;2023-04-22T07:28:44;100765.59;;;11.90;83.98
72857;BME280;62742;52.136;4.500;2023-04-22T07:31:10;100771.75;;;12.30;83.06
72857;BME280;62742;52.136;4.500;2023-04-22T07:33:36;100763.91;;;12.63;83.49
72857;BME280;62742;52.136;4.500;2023-04-22T07:36:02;100753.97;;;13.07;82.94
72857;BME280;62742;52.136;4.500;2023-04-22T07:38:29;100759.78;;;13.51;78.98
72857;BME280;62742;52.136;4.500;2023-04-22T07:40:55;100772.75;;;13.59;79.53
72857;BME280;62742;52.136;4.500;2023-04-22T07:43:21;100777.31;;;13.54;79.08
72857;BME280;62742;52.136;4.500;2023-04-22T07:45:47;100774.00;;;13.77;76.52
72857;BME280;62742;52.136;4.500;2023-04-22T07:48:14;100775.66;;;13.79;75.46
72857;BME280;62742;52.136;4.500;2023-04-22T07:50:41;100790.84;;;14.02;75.97
72857;BME280;62742;52.136;4.500;2023-04-22T07:53:08;100778.31;;;13.79;74.67
72857;BME280;62742;52.136;4.500;2023-04-22T07:55:35;100769.81;;;13.98;72.88
72857;BME280;62742;52.136;4.500;2023-04-22T07:58:03;100768.47;;;13.84;72.80
72857;BME280;62742;52.136;4.500;2023-04-22T08:00:33;100765.75;;;14.43;72.76
72857;BME280;62742;52.136;4.500;2023-04-22T08:03:01;100759.78;;;14.89;nan
72857;BME280;62742;52.136;4.500;2023-04-22T08:05:28;100748.91;;;14.99;66.34
72857;BME280;62742;52.136;4.500;2023-04-22T08:07:54;100739.22;;;15.23;69.74
72857;BME280;62742;52.136;4.500;2023-04-22T08:10:21;100735.91;;;15.16;68.00
72857;BME280;62742;52.136;4.500;2023-04-22T08:12:47;100727.22;;;15.12;67.33
72857;BME280;62742;52.136;4.500;2023-04-22T08:15:14;100722.13;;;14.56;71.27
72857;BME280;62742;52.136;4.500;2023-04-22T08:17:40;100723.34;;;14.19;72.85
72857;BME280;62742;52.136;4.500;2023-04-22T08:20:07;100716.44;;;14.41;70.21
72857;BME280;62742;52.136;4.500;2023-04-22T08:22:34;100729.78;;;14.65;70.36
72857;BME280;62742;52.136;4.500;2023-04-22T08:25:00;100730.44;;;14.18;69.21
72857;BME280;62742;52.136;4.500;2023-04-22T08:27:26;100729.16;;;14.30;69.56
72857;BME280;62742;52.136;4.500;2023-04-22T08:29:53;100729.47;;;14.74;68.64
72857;BME280;62742;52.136;4.500;2023-04-22T08:32:19;100719.84;;;14.97;66.76
72857;BME280;62742;52.136;4.500;2023-04-22T08:34:47;100723.78;;;15.10;68.47
72857;BME280;62742;52.136;4.500;2023-04-22T08:37:13;100725.50;;;15.11;65.45
72857;BME280;62742;52.136;4.500;2023-04-22T08:39:39;100728.41;;;15.29;68.25
72857;BME280;62742;52.136;4.500;2023-04-22T08:42:05;100734.72;;;15.25;63.46
72857;BME280;62742;52.136;4.500;2023-04-22T08:44:32;100730.59;;;15.41;63.07
72857;BME280;62742;52.136;4.500;2023-04-22T08:47:02;100721.97;;;15.36;65.51
72857;BME280;62742;52.136;4.500;2023-04-22T08:49:28;100717.13;;;15.93;67.07
72857;BME280;62742;52.136;4.500;2023-04-22T08:51:55;100724.44;;;16.31;63.27
72857;BME280;62742;52.136;4.500;2023-04-22T08:54:23;100713.31;;;16.43;62.00
72857;BME280;62742;52.136;4.500;2023-04-22T08:56:49;100712.56;;;16.19;60.55
72857;BME280;62742;52.136;4.500;2023-04-22T08:59:16;100708.41;;;16.34;63.25
72857;BME280;62742;52.136;4.500;2023-04-22T09:01:44;100713.00;;;16.51;59.72
72857;BME280;62742;52.136;4.500;2023-04-22T09:04:15;100697.06;;;16.30;62.95
72857;BME280;62742;52.136;4.500;2023-04-22T09:06:43;100687.47;;;16.69;60.59
72857;BME280;62742;52.136;4.500;2023-04-22T09:09:10;100688.22;;;16.52;63.76
72857;BME280;62742;52.136;4.500;2023-04-22T09:11:36;100682.34;;;16.86;58.51
72857;BME280;62742;52.136;4.500;2023-04-22T09:14:03;100677.25;;;16.18;58.91
72857;BME280;62742;52.136;4.500;2023-04-22T09:16:29;100677.75;;;16.06;60.34
72857;BME280;62742;52.136;4.500;2023-04-22T09:18:57;100684.66;;;15.88;58.46
72857;BME280;62742;52.136;4.500;2023-04-22T09:21:24;100671.84;;;16.42;59.41
72857;BME280;62742;52.136;4.500;2023-04-22T09:23:54;100656.28;;;16.74;59.68
72857;BME280;62742;52.136;4.500;2023-04-22T09:26:21;100653.97;;;16.66;60.00
72857;BME280;62742;52.136;4.500;2023-04-22T09:28:50;100646.63;;;16.73;60.71
72857;BME280;62742;52.136;4.500;2023-04-22T09:31:20;100648.88;;;16.20;61.77
72857;BME280;62742;52.136;4.500;2023-04-22T09:33:49;100654.25;;;15.97;60.73
72857;BME280;62742;52.136;4.500;2023-04-22T09:36:26;100658.81;;;16.15;62.52
72857;BME280;62742;52.136;4.500;2023-04-22T09:38:54;100652.97;;;16.27;61.95
72857;BME280;62742;52.136;4.500;2023-04-22T09:41:28;100661.41;;;16.37;63.88
72857;BME280;62742;52.136;4.500;2023-04-22T09:43:57;100663.94;;;15.98;61.82
72857;BME280;62742;52.136;4.500;2023-04-22T09:46:25;100680.59;;;15.56;60.35
72857;BME280;62742;52.136;4.500;2023-04-22T09:48:53;100683.34;;;16.20;61.64
72857;BME280;62742;52.136;4.500;2023-04-22T09:51:21;100685.75;;;16.04;63.78
72857;BME280;62742;52.136;4.500;2023-04-22T09:53:57;100682.13;;;16.27;64.35
72857;BME280;62742;52.136;4.500;2023-04-22T09:59:16;100701.50;;;15.87;62.81
72857;BME280;62742;52.136;4.500;2023-04-22T10:01:50;100716.31;;;16.35;65.11
72857;BME280;62742;52.136;4.500;2023-04-22T10:04:17;100714.00;;;16.48;63.52
72857;BME280;62742;52.136;4.500;2023-04-22T10:06:46;100719.66;;;16.61;60.44
72857;BME280;62742;52.136;4.500;2023-04-22T10:09:13;100713.75;;;16.95;59.57
72857;BME280;62742;52.136;4.500;2023-04-22T10:11:43;100710.88;;;17.20;60.30
72857;BME280;62742;52.136;4.500;2023-04-22T10:14:09;100711.16;;;17.33;59.96
72857;BME280;62742;52.136;4.500;2023-04-22T10:16:36;100710.44;;;17.68;61.26
72857;BME280;62742;52.136;4.500;2023-04-22T10:19:04;100707.53;;;17.55;57.28
72857;BME280;62742;52.136;4.500;2023-04-22T10:21:35;100712.13;;;17.89;56.70
72857;BME280;62742;52.136;4.500;2023-04-22T10:24:02;100703.06;;;17.36;58.62
72857;BME280;62742;52.136;4.500;2023-04-22T10:26:39;100712.56;;;17.61;58.20
72857;BME280;62742;52.136;4.500;2023-04-22T10:29:25;100710.28;;;17.14;60.56
72857;BME280;62742;52.136;4.500;2023-04-22T10:35:01;100705.53;;;16.60;59.89
72857;BME280;62742;52.136;4.500;2023-04-22T10:37:32;100718.31;;;16.08;57.83
72857;BME280;62742;52.136;4.500;2023-04-22T10:40:06;100708.78;;;16.04;59.74
72857;BME280;62742;52.136;4.500;2023-04-22T10:42:48;100713.50;;;15.96;61.16
72857;BME280;62742;52.136;4.500;2023-04-22T10:45:16;100715.59;;;15.87;58.60
72857;BME280;62742;52.136;4.500;2023-04-22T10:47:43;100720.16;;;15.60;62.53
72857;BME280;62742;52.136;4.500;2023-04-22T10:52:50;100728.78;;;15.18;64.42
72857;BME280;62742;52.136;4.500;2023-04-22T10:55:49;100725.84;;;15.02;64.26
72857;BME280;62742;52.136;4.500;2023-04-22T10:58:18;100717.75;;;14.55;64.63
72857;BME280;62742;52.136;4.500;2023-04-22T11:00:46;100719.91;;;14.70;64.16
72857;BME280;62742;52.136;4.500;2023-04-22T11:03:18;100703.13;;;14.71;62.29
72857;BME280;62742;52.136;4.500;2023-04-22T11:05:50;100700.78;;;14.35;62.57
72857;BME280;62742;52.136;4.500;2023-04-22T11:08:43;100712.69;;;14.22;66.57
72857;BME280;62742;52.136;4.500;2023-04-22T11:11:16;100712.50;;;14.28;68.27
72857;BME280;62742;52.136;4.500;2023-04-22T11:13:43;100717.16;;;14.20;66.79
72857;BME280;62742;52.136;4.500;2023-04-22T11:16:12;100726.94;;;14.18;66.91
72857;BME280;62742;52.136;4.500;2023-04-22T11:18:38;100720.53;;;13.97;68.13
72857;BME280;62742;52.136;4.500;2023-04-22T11:21:05;100711.22;;;13.85;67.76
72857;BME280;62742;52.136;4.500;2023-04-22T11:23:33;100720.81;;;13.59;69.81
72857;BME280;62742;52.136;4.500;2023-04-22T11:26:01;100726.50;;;14.03;69.36
72857;BME280;62742;52.136;4.500;2023-04-22T11:28:29;100723.44;;;13.89;68.59
72857;BME280;62742;52.136;4.500;2023-04-22T11:31:02;100720.63;;;13.65;70.07
72857;BME280;62742;52.136;4.500;2023-04-22T11:33:33;100723.94;;;13.72;70.65
72857;BME280;62742;52.136;4.500;2023-04-22T11:36:00;100747.50;;;13.50;71.58
72857;BME280;62742;52.136;4.500;2023-04-22T11:38:27;100756.91;;;13.59;71.20
72857;BME280;62742;52.136;4.500;2023-04-22T11:40:54;100760.16;;;13.37;72.32
72857;BME280;62742;52.136;4.500;2023-04-22T11:43:24;100770.69;;;13.39;74.35
72857;BME280;62742;52.136;4.500;2023-04-22T11:45:50;100775.69;;;13.50;73.65
72857;BME280;62742;52.136;4.500;2023-04-22T11:48:17;100755.13;;;12.97;73.58
72857;BME280;62742;52.136;4.500;2023-04-22T11:50:43;100761.41;;;12.57;73.87
72857;BME280;62742;52.136;4.500;2023-04-22T11:53:12;100744.78;;;12.54;75.75
72857;BME280;62742;52.136;4.500;2023-04-22T11:55:39;100726.38;;;12.53;77.29
72857;BME280;62742;52.136;4.500;2023-04-22T12:00:35;100718.28;;;12.61;76.67
72857;BME280;62742;52.136;4.500;2023-04-22T12:03:03;100742.97;;;12.57;76.75
72857;BME280;62742;52.136;4.500;2023-04-22T12:05:36;100777.34;;;12.88;77.11
72857;BME280;62742;52.136;4.500;2023-04-22T12:08:06;100749.50;;;12.76;77.48
72857;BME280;62742;52.136;4.500;2023-04-22T12:10:38;100715.38;;;12.70;77.86
72857;BME280;62742;52.136;4.500;2023-04-22T12:13:08;100739.84;;;12.75;78.36
72857;BME280;62742;52.136;4.500;2023-04-22T12:15:42;100738.38;;;12.65;78.29
72857;BME280;62742;52.136;4.500;2023-04-22T12:18:09;100740.13;;;12.66;79.28
72857;BME280;62742;52.136;4.500;2023-04-22T12:20:39;100721.56;;;12.69;79.44
72857;BME280;62742;52.136;4.500;2023-04-22T12:23:16;100710.03;;;12.40;79.80
72857;BME280;62742;52.136;4.500;2023-04-22T12:25:42;100701.81;;;12.16;79.90
72857;BME280;62742;52.136;4.500;2023-04-22T12:28:08;100712.19;;;12.23;79.45
72857;BME280;62742;52.136;4.500;2023-04-22T12:30:36;100706.28;;;12.14;80.84
72857;BME280;62742;52.136;4.500;2023-04-22T12:33:02;100701.25;;;12.04;80.19
72857;BME280;62742;52.136;4.500;2023-04-22T12:35:28;100704.78;;;12.03;81.27
72857;BME280;62742;52.136;4.500;2023-04-22T12:37:55;100702.50;;;12.25;80.93
72857;BME280;62742;52.136;4.500;2023-04-22T12:40:21;100704.81;;;12.37;81.53
72857;BME280;62742;52.136;4.500;2023-04-22T12:42:48;100720.38;;;12.12;79.68
72857;BME280;62742;52.136;4.500;2023-04-22T12:45:14;100721.44;;;12.03;80.75
72857;BME280;62742;52.136;4.500;2023-04-22T12:47:41;100719.88;;;11.96;81.56
72857;BME280;62742;52.136;4.500;2023-04-22T12:50:09;100722.50;;;11.96;81.39
72857;BME280;62742;52.136;4.500;2023-04-22T12:52:42;100709.72;;;11.77;82.34
72857;BME280;62742;52.136;4.500;2023-04-22T12:55:08;100694.38;;;11.96;80.61
72857;BME280;62742;52.136;4.500;2023-04-22T12:57:34;100699.44;;;12.06;79.43
72857;BME280;62742;52.136;4.500;2023-04-22T13:00:00;100720.69;;;11.98;79.03
72857;BME280;62742;52.136;4.500;2023-04-22T13:02:27;100705.22;;;12.22;80.80
72857;BME280;62742;52.136;4.500;2023-04-22T13:04:53;100706.47;;;12.41;81.07
72857;BME280;62742;52.136;4.500;2023-04-22T13:07:20;100713.09;;;12.58;80.66